Time;durP1;ratioP1;P1;durP2;ratioP2;P2;SDS_P1;SDS_P2;PMS_P1;PMS_P2;Temp;Humidity;BMP_temperature;BMP_pressure;BME280_temperature;BME280_humidity;BME280_pressure;Samples;Min_cycle;Max_cycle;Signal;HPM_P1;HPM_P2
2024/04/04 00:01:27;;;;;;;;;;;;;;;23.33;38.94;100584.75;4146482;28;20051;-63
2024/04/04 00:03:28;;;;;;;;;;;;;;;23.35;38.87;100579.25;4146372;28;19952;-63
2024/04/04 00:05:29;;;;;;;;;;;;;;;23.36;39.08;100571.03;4146517;28;20334;-63
2024/04/04 00:07:30;;;;;;;;;;;;;;;23.36;39.05;100572.91;4146106;28;20422;-62
2024/04/04 00:09:30;;;;;;;;;;;;;;;23.36;38.78;100572.91;4146294;28;19955;-62
2024/04/04 00:11:31;;;;;;;;;;;;;;;23.36;38.75;100576.41;4146572;28;19965;-63
2024/04/04 00:13:31;;;;;;;;;;;;;;;23.37;38.65;100575.44;4146281;28;19926;-62
2024/04/04 00:15:37;;;;;;;;;;;;;;;23.35;38.70;100576.56;4146293;28;19925;-62
2024/04/04 00:17:38;;;;;;;;;;;;;;;23.34;38.69;100569.50;4146200;28;19925;-62
2024/04/04 00:19:38;;;;;;;;;;;;;;;23.33;38.68;100562.44;4146378;28;20367;-61
2024/04/04 00:21:39;;;;;;;;;;;;;;;23.35;38.66;100552.41;4145923;28;19929;-62
2024/04/04 00:23:40;;;;;;;;;;;;;;;23.32;39.01;100550.88;4129896;28;19926;-62
2024/04/04 00:25:42;;;;;;;;;;;;;;;23.34;38.88;100553.41;4114123;28;19981;-62
2024/04/04 00:27:43;;;;;;;;;;;;;;;23.33;38.80;100549.88;4113971;28;20020;-65
2024/04/04 00:29:43;;;;;;;;;;;;;;;23.34;38.91;100542.66;4129741;28;19926;-62
2024/04/04 00:31:44;;;;;;;;;;;;;;;23.33;38.98;100539.16;4130060;28;19937;-62
2024/04/04 00:33:45;;;;;;;;;;;;;;;23.34;38.92;100548.03;4114140;28;19926;-62
2024/04/04 00:35:45;;;;;;;;;;;;;;;23.35;38.88;100544.34;4129907;28;19969;-62
2024/04/04 00:37:47;;;;;;;;;;;;;;;23.34;39.25;100535.44;4129701;28;19930;-61
2024/04/04 00:39:48;;;;;;;;;;;;;;;23.34;38.88;100537.28;4129876;28;19926;-62
2024/04/04 00:41:48;;;;;;;;;;;;;;;23.33;39.22;100536.47;4129748;28;20284;-62
2024/04/04 00:43:49;;;;;;;;;;;;;;;23.34;38.85;100526.56;4130259;28;19984;-62
2024/04/04 00:45:50;;;;;;;;;;;;;;;23.34;38.91;100526.56;4129742;28;19938;-62
2024/04/04 00:47:50;;;;;;;;;;;;;;;23.38;38.90;100519.91;4129941;28;19926;-62
2024/04/04 00:49:51;;;;;;;;;;;;;;;23.34;38.92;100519.34;4129883;28;20288;-62
2024/04/04 00:51:52;;;;;;;;;;;;;;;23.34;38.91;100507.78;4129546;28;20399;-62
2024/04/04 00:53:53;;;;;;;;;;;;;;;23.33;38.92;100516.81;4129552;28;19926;-63
2024/04/04 00:55:54;;;;;;;;;;;;;;;23.33;39.33;100506.94;4134817;28;20518;-62
2024/04/04 00:57:55;;;;;;;;;;;;;;;23.35;39.13;100510.31;4129560;28;20005;-63
2024/04/04 00:59:56;;;;;;;;;;;;;;;23.34;39.00;100502.41;4145910;28;19995;-62
2024/04/04 01:01:56;;;;;;;;;;;;;;;23.34;39.00;100489.81;4146172;28;19925;-62
2024/04/04 01:03:57;;;;;;;;;;;;;;;23.33;39.31;100490.84;4145892;28;19933;-62
2024/04/04 01:05:58;;;;;;;;;;;;;;;23.36;39.13;100489.69;4145635;28;20334;-62
2024/04/04 01:07:58;;;;;;;;;;;;;;;23.34;39.18;100489.81;4145970;28;19925;-63
2024/04/04 01:10:06;;;;;;;;;;;;;;;23.35;39.00;100493.38;4145700;28;20274;-62
2024/04/04 01:12:08;;;;;;;;;;;;;;;23.34;39.22;100484.47;4147658;28;19925;-62
2024/04/04 01:14:09;;;;;;;;;;;;;;;23.32;39.03;100489.16;4149091;28;19925;-61
2024/04/04 01:16:10;;;;;;;;;;;;;;;23.32;39.01;100483.78;4148571;28;20441;-62
2024/04/04 01:18:10;;;;;;;;;;;;;;;23.34;39.28;100481.78;4148532;28;19983;-62
2024/04/04 01:20:11;;;;;;;;;;;;;;;23.32;39.08;100478.41;4148458;28;20061;-63
2024/04/04 01:22:12;;;;;;;;;;;;;;;23.32;39.15;100470.34;4148495;28;19977;-62
2024/04/04 01:24:12;;;;;;;;;;;;;;;23.33;39.49;100477.44;4148730;28;20316;-62
2024/04/04 01:26:14;;;;;;;;;;;;;;;23.33;39.03;100466.69;4148519;28;20024;-61
2024/04/04 01:28:15;;;;;;;;;;;;;;;23.34;39.31;100462.16;4148667;28;20028;-62
2024/04/04 01:30:16;;;;;;;;;;;;;;;23.37;39.07;100472.63;4148658;28;20023;-62
2024/04/04 01:32:17;;;;;;;;;;;;;;;23.34;39.44;100465.69;4148766;28;19925;-62
2024/04/04 01:34:17;;;;;;;;;;;;;;;23.35;39.33;100469.22;4148263;28;20008;-63
2024/04/04 01:36:18;;;;;;;;;;;;;;;23.34;39.12;100462.16;4148491;28;20314;-62
2024/04/04 01:38:18;;;;;;;;;;;;;;;23.33;39.25;100465.81;4148427;28;19929;-62
2024/04/04 01:40:19;;;;;;;;;;;;;;;23.33;39.19;100458.63;4148499;28;19949;-61
2024/04/04 01:42:19;;;;;;;;;;;;;;;23.31;39.22;100460.63;4148381;28;19984;-64
2024/04/04 01:44:21;;;;;;;;;;;;;;;23.29;39.33;100465.28;4132220;28;19933;-62
2024/04/04 01:46:22;;;;;;;;;;;;;;;23.30;39.35;100461.59;4148385;28;19980;-62
2024/04/04 01:48:22;;;;;;;;;;;;;;;23.32;39.36;100450.72;4147987;28;20023;-63
2024/04/04 01:50:23;;;;;;;;;;;;;;;23.32;39.25;100454.25;4148382;28;19929;-62
2024/04/04 01:52:23;;;;;;;;;;;;;;;23.30;39.41;100442.81;4148237;28;20357;-62
2024/04/04 01:54:24;;;;;;;;;;;;;;;23.32;39.41;100439.97;4148110;28;19926;-62
2024/04/04 01:56:25;;;;;;;;;;;;;;;23.33;39.23;100441.69;4148008;28;20373;-62
2024/04/04 01:58:25;;;;;;;;;;;;;;;23.32;39.39;100435.47;4148207;28;19960;-62
2024/04/04 02:00:29;;;;;;;;;;;;;;;23.34;39.40;100424.59;4148254;28;20379;-61
2024/04/04 02:02:30;;;;;;;;;;;;;;;23.34;39.50;100432.63;4147939;28;19929;-61
2024/04/04 02:04:30;;;;;;;;;;;;;;;23.36;39.55;100418.09;4147699;28;19929;-61
2024/04/04 02:06:31;;;;;;;;;;;;;;;23.33;39.27;100421.06;4147792;28;19925;-62
2024/04/04 02:08:31;;;;;;;;;;;;;;;23.34;39.75;100419.22;4147763;28;19926;-62
2024/04/04 02:10:33;;;;;;;;;;;;;;;23.32;39.62;100413.16;4147835;28;19960;-61
2024/04/04 02:12:34;;;;;;;;;;;;;;;23.30;39.60;100415.97;4147882;28;19984;-61
2024/04/04 02:14:35;;;;;;;;;;;;;;;23.28;39.58;100426.00;4147943;28;19926;-62
2024/04/04 02:16:39;;;;;;;;;;;;;;;23.28;39.65;100415.28;4147776;28;19929;-62
2024/04/04 02:18:40;;;;;;;;;;;;;;;23.29;39.37;100419.66;4147419;28;19937;-63
2024/04/04 02:20:41;;;;;;;;;;;;;;;23.30;39.47;100407.94;4147843;28;19929;-62
2024/04/04 02:22:41;;;;;;;;;;;;;;;23.30;39.60;100402.56;4146844;28;19926;-63
2024/04/04 02:24:42;;;;;;;;;;;;;;;23.32;39.39;100395.22;4147478;28;19933;-62
2024/04/04 02:26:43;;;;;;;;;;;;;;;23.31;39.52;100398.91;4147718;28;20008;-61
2024/04/04 02:28:43;;;;;;;;;;;;;;;23.33;39.71;100409.47;4147680;28;20446;-61
2024/04/04 02:30:44;;;;;;;;;;;;;;;23.33;39.78;100399.59;4147468;28;19968;-61
2024/04/04 02:32:46;;;;;;;;;;;;;;;23.26;39.40;100388.59;4147193;28;20015;-62
2024/04/04 02:34:47;;;;;;;;;;;;;;;23.27;39.48;100397.50;4147703;28;19933;-62
2024/04/04 02:36:48;;;;;;;;;;;;;;;23.26;39.75;100401.19;4147393;28;20020;-62
2024/04/04 02:38:48;;;;;;;;;;;;;;;23.27;39.73;100397.50;4147681;28;19925;-62
2024/04/04 02:40:49;;;;;;;;;;;;;;;23.25;39.60;100397.63;4147251;28;19997;-61
2024/04/04 02:42:52;;;;;;;;;;;;;;;23.27;39.71;100406.38;4147492;28;19929;-62
2024/04/04 02:44:52;;;;;;;;;;;;;;;23.31;39.68;100400.72;4147558;28;19941;-62
2024/04/04 02:46:53;;;;;;;;;;;;;;;23.29;39.50;100398.19;4147024;28;19925;-61
2024/04/04 02:48:54;;;;;;;;;;;;;;;23.27;39.86;100395.66;4147208;28;19925;-61
2024/04/04 02:50:55;;;;;;;;;;;;;;;23.28;39.74;100404.53;4147434;28;19973;-61
2024/04/04 02:52:55;;;;;;;;;;;;;;;23.28;39.90;100408.09;4147514;28;19925;-62
2024/04/04 02:54:56;;;;;;;;;;;;;;;23.27;39.66;100392.13;4147324;28;19925;-61
2024/04/04 02:56:56;;;;;;;;;;;;;;;23.26;39.61;100379.72;4147048;28;19925;-62
2024/04/04 02:58:57;;;;;;;;;;;;;;;23.28;39.75;100383.94;4131034;28;20372;-62
2024/04/04 03:01:03;;;;;;;;;;;;;;;23.29;39.68;100379.41;4130721;28;20299;-62
2024/04/04 03:03:04;;;;;;;;;;;;;;;23.26;39.56;100375.19;4137577;28;20405;-62
2024/04/04 03:05:05;;;;;;;;;;;;;;;23.28;39.90;100373.19;4147079;28;19967;-62
2024/04/04 03:07:07;;;;;;;;;;;;;;;23.31;39.53;100371.19;4130768;28;19953;-62
2024/04/04 03:09:09;;;;;;;;;;;;;;;23.26;39.62;100364.44;4130762;28;19925;-62
2024/04/04 03:11:09;;;;;;;;;;;;;;;23.24;39.68;100365.59;4130747;28;20474;-62
2024/04/04 03:13:10;;;;;;;;;;;;;;;23.21;39.94;100360.50;4146934;28;19934;-61
2024/04/04 03:15:10;;;;;;;;;;;;;;;23.22;39.82;100348.78;4130382;28;20044;-62
2024/04/04 03:17:11;;;;;;;;;;;;;;;23.20;39.87;100351.63;4130681;28;19953;-63
2024/04/04 03:19:11;;;;;;;;;;;;;;;23.22;39.81;100344.28;4114505;28;19961;-62
2024/04/04 03:21:12;;;;;;;;;;;;;;;23.24;39.91;100338.75;4130700;28;19930;-62
2024/04/04 03:23:13;;;;;;;;;;;;;;;23.25;39.68;100346.66;4142886;28;20431;-62
2024/04/04 03:25:13;;;;;;;;;;;;;;;23.27;40.04;100341.16;4146753;28;19983;-63
2024/04/04 03:27:14;;;;;;;;;;;;;;;23.25;39.74;100345.81;4146603;28;20361;-62
2024/04/04 03:29:14;;;;;;;;;;;;;;;23.26;39.99;100331.41;4146577;28;19944;-62
2024/04/04 03:31:15;;;;;;;;;;;;;;;23.27;39.74;100335.78;4146286;28;19952;-62
2024/04/04 03:33:15;;;;;;;;;;;;;;;23.24;40.03;100331.53;4146621;28;19925;-61
2024/04/04 03:35:16;;;;;;;;;;;;;;;23.24;39.71;100333.38;4146347;28;19932;-61
2024/04/04 03:37:17;;;;;;;;;;;;;;;23.25;39.73;100335.09;4146828;28;20292;-62
2024/04/04 03:39:17;;;;;;;;;;;;;;;23.21;39.86;100326.50;4146699;28;19926;-62
2024/04/04 03:41:19;;;;;;;;;;;;;;;23.21;39.83;100320.25;4146521;28;19925;-61
2024/04/04 03:43:20;;;;;;;;;;;;;;;23.22;39.81;100332.69;4146478;28;20454;-62
2024/04/04 03:45:20;;;;;;;;;;;;;;;23.21;39.88;100328.31;4146396;28;19936;-63
2024/04/04 03:47:21;;;;;;;;;;;;;;;23.21;39.86;100329.16;4146246;28;19957;-62
2024/04/04 03:49:22;;;;;;;;;;;;;;;23.17;40.03;100332.28;4146536;28;19929;-62
2024/04/04 03:51:23;;;;;;;;;;;;;;;23.20;39.72;100324.78;4146588;28;19933;-64
2024/04/04 03:53:24;;;;;;;;;;;;;;;23.21;39.96;100331.84;4146606;28;19953;-62
2024/04/04 03:55:24;;;;;;;;;;;;;;;23.21;40.00;100322.94;4146403;28;19925;-62
2024/04/04 03:57:25;;;;;;;;;;;;;;;23.21;40.02;100322.94;4146380;28;19968;-62
2024/04/04 03:59:25;;;;;;;;;;;;;;;23.23;39.81;100324.50;4145945;28;19933;-63
2024/04/04 04:01:26;;;;;;;;;;;;;;;23.19;39.89;100328.47;4146185;28;19925;-62
2024/04/04 04:03:26;;;;;;;;;;;;;;;23.18;40.32;100324.09;4146191;28;20330;-62
2024/04/04 04:05:27;;;;;;;;;;;;;;;23.17;40.02;100335.81;4146376;28;20003;-62
2024/04/04 04:07:27;;;;;;;;;;;;;;;23.10;40.30;100326.66;4146050;28;19926;-61
2024/04/04 04:09:28;;;;;;;;;;;;;;;23.14;40.12;100336.91;4146196;28;19976;-62
2024/04/04 04:11:28;;;;;;;;;;;;;;;23.14;39.93;100326.19;4146205;28;20020;-62
2024/04/04 04:13:29;;;;;;;;;;;;;;;23.08;40.15;100332.13;4145914;28;19975;-62
2024/04/04 04:15:30;;;;;;;;;;;;;;;23.10;40.26;100332.84;4146729;28;19945;-63
2024/04/04 04:17:31;;;;;;;;;;;;;;;23.12;40.37;100338.91;4146506;28;19929;-62
2024/04/04 04:19:32;;;;;;;;;;;;;;;23.15;40.29;100335.09;4129817;28;19926;-62
2024/04/04 04:21:32;;;;;;;;;;;;;;;23.18;40.34;100352.75;4146218;28;19925;-61
2024/04/04 04:23:33;;;;;;;;;;;;;;;23.16;40.35;100355.56;4146120;28;19968;-62
2024/04/04 04:25:34;;;;;;;;;;;;;;;23.19;40.16;100341.03;4130109;28;19960;-62
2024/04/04 04:27:34;;;;;;;;;;;;;;;23.18;40.04;100350.91;4129839;28;19926;-62
2024/04/04 04:29:35;;;;;;;;;;;;;;;23.15;40.28;100353.88;4130010;28;20469;-62
2024/04/04 04:31:35;;;;;;;;;;;;;;;23.18;40.35;100366.16;4130071;28;20016;-62
2024/04/04 04:33:36;;;;;;;;;;;;;;;23.15;40.13;100356.56;4129950;28;19926;-62
2024/04/04 04:35:36;;;;;;;;;;;;;;;23.13;40.45;100358.53;4129905;28;19933;-63
2024/04/04 04:37:37;;;;;;;;;;;;;;;23.13;40.47;100362.03;4130033;28;19933;-62
2024/04/04 04:39:38;;;;;;;;;;;;;;;23.13;40.15;100359.34;4129898;28;20009;-61
2024/04/04 04:41:38;;;;;;;;;;;;;;;23.10;40.28;100362.34;4129857;28;19925;-62
2024/04/04 04:43:42;;;;;;;;;;;;;;;23.10;40.16;100359.66;4129314;28;19979;-61
2024/04/04 04:45:43;;;;;;;;;;;;;;;23.11;40.50;100369.41;4130025;28;19926;-62
2024/04/04 04:47:43;;;;;;;;;;;;;;;23.12;40.36;100370.25;4132342;28;19977;-62
2024/04/04 04:49:44;;;;;;;;;;;;;;;23.14;40.29;100362.91;4133237;28;20549;-62
2024/04/04 04:51:44;;;;;;;;;;;;;;;23.13;40.24;100353.16;4133072;28;20025;-62
2024/04/04 04:53:45;;;;;;;;;;;;;;;23.14;40.28;100368.28;4132806;28;20016;-62
2024/04/04 04:55:49;;;;;;;;;;;;;;;23.16;40.45;100363.63;4136586;28;20343;-62
2024/04/04 04:57:49;;;;;;;;;;;;;;;23.17;40.22;100359.13;4148923;28;20500;-62
2024/04/04 04:59:50;;;;;;;;;;;;;;;23.12;40.15;100371.09;4149041;28;19929;-62
2024/04/04 05:01:51;;;;;;;;;;;;;;;23.12;40.19;100378.28;4148955;28;19933;-62
2024/04/04 05:03:51;;;;;;;;;;;;;;;23.14;40.40;100376.31;4148818;28;19925;-63
2024/04/04 05:05:52;;;;;;;;;;;;;;;23.03;40.36;100382.69;4149114;28;19925;-61
2024/04/04 05:07:52;;;;;;;;;;;;;;;23.03;40.29;100398.78;4148788;28;19955;-62
2024/04/04 05:09:53;;;;;;;;;;;;;;;23.06;40.44;100446.78;4148561;28;20418;-63
2024/04/04 05:11:54;;;;;;;;;;;;;;;23.08;40.37;100484.19;4148671;28;19932;-63
2024/04/04 05:13:54;;;;;;;;;;;;;;;23.08;40.23;100487.72;4148878;28;20363;-62
2024/04/04 05:15:55;;;;;;;;;;;;;;;23.09;40.24;100504.66;4148899;28;19983;-62
2024/04/04 05:17:56;;;;;;;;;;;;;;;23.09;40.21;100510.03;4148889;28;19929;-62
2024/04/04 05:19:56;;;;;;;;;;;;;;;23.10;40.12;100507.19;4148645;28;19926;-62
2024/04/04 05:21:57;;;;;;;;;;;;;;;23.08;40.00;100501.13;4148818;28;19925;-63
2024/04/04 05:23:57;;;;;;;;;;;;;;;23.09;40.13;100510.03;4148739;28;19959;-63
2024/04/04 05:25:58;;;;;;;;;;;;;;;23.08;40.09;100498.44;4148265;28;19933;-63
2024/04/04 05:27:59;;;;;;;;;;;;;;;23.08;40.14;100493.06;4148352;28;20307;-63
2024/04/04 05:30:06;;;;;;;;;;;;;;;23.07;39.90;100498.59;4148493;28;19944;-62
2024/04/04 05:32:06;;;;;;;;;;;;;;;23.05;40.07;100490.69;4148753;28;19930;-63
2024/04/04 05:34:07;;;;;;;;;;;;;;;23.05;40.08;100501.41;4148590;28;20327;-63
2024/04/04 05:36:08;;;;;;;;;;;;;;;23.04;40.30;100480.06;4148474;28;19925;-63
2024/04/04 05:38:09;;;;;;;;;;;;;;;23.04;40.13;100486.31;4148459;28;19930;-63
2024/04/04 05:40:10;;;;;;;;;;;;;;;23.04;40.16;100489.00;4148162;28;19925;-63
2024/04/04 05:42:10;;;;;;;;;;;;;;;23.04;39.94;100486.31;4148553;28;19929;-63
2024/04/04 05:44:11;;;;;;;;;;;;;;;23.05;39.77;100479.97;4148363;28;19932;-63
2024/04/04 05:46:11;;;;;;;;;;;;;;;23.06;39.97;100484.34;4148371;28;19947;-63
2024/04/04 05:48:12;;;;;;;;;;;;;;;23.07;40.01;100494.06;4148307;28;20018;-62
2024/04/04 05:50:13;;;;;;;;;;;;;;;23.07;39.89;100491.38;4148320;28;19972;-62
2024/04/04 05:52:14;;;;;;;;;;;;;;;23.08;40.24;100492.25;4131972;28;19929;-63
2024/04/04 05:54:16;;;;;;;;;;;;;;;23.09;39.89;100502.81;4148291;28;19937;-62
2024/04/04 05:56:16;;;;;;;;;;;;;;;23.09;40.18;100499.31;4147834;28;19932;-61
2024/04/04 05:58:17;;;;;;;;;;;;;;;23.07;39.88;100499.41;4147999;28;19925;-62
2024/04/04 06:00:18;;;;;;;;;;;;;;;23.07;40.06;100509.31;4147892;28;19984;-62
2024/04/04 06:02:18;;;;;;;;;;;;;;;23.08;40.07;100514.53;4147870;28;20031;-62
2024/04/04 06:04:19;;;;;;;;;;;;;;;23.07;39.77;100512.00;4147904;28;20013;-66
2024/04/04 06:06:19;;;;;;;;;;;;;;;23.08;39.82;100505.66;4147916;28;20406;-63
2024/04/04 06:08:22;;;;;;;;;;;;;;;23.08;39.76;100506.47;4147715;28;19929;-62
2024/04/04 06:10:22;;;;;;;;;;;;;;;23.08;39.90;100494.91;4147362;28;19933;-63
2024/04/04 06:12:23;;;;;;;;;;;;;;;23.08;40.07;100487.72;4147644;28;19925;-62
2024/04/04 06:14:24;;;;;;;;;;;;;;;23.09;40.17;100488.56;4147833;28;19933;-61
2024/04/04 06:16:24;;;;;;;;;;;;;;;23.10;40.05;100483.06;4147922;28;19929;-61
2024/04/04 06:18:25;;;;;;;;;;;;;;;23.10;39.81;100472.31;4147679;28;20344;-63
2024/04/04 06:20:25;;;;;;;;;;;;;;;23.06;39.83;100462.88;4147657;28;20039;-63
2024/04/04 06:22:26;;;;;;;;;;;;;;;23.07;39.86;100466.41;4131354;28;19926;-62
2024/04/04 06:24:27;;;;;;;;;;;;;;;23.07;39.88;100466.41;4130853;28;19926;-62
2024/04/04 06:26:28;;;;;;;;;;;;;;;23.07;39.81;100469.09;4147617;28;19925;-62
2024/04/04 06:28:29;;;;;;;;;;;;;;;23.06;40.20;100468.25;4131546;28;19933;-62
2024/04/04 06:30:29;;;;;;;;;;;;;;;23.03;40.01;100462.31;4131530;28;19961;-63
2024/04/04 06:32:30;;;;;;;;;;;;;;;23.04;39.91;100467.53;4131352;28;19933;-62
2024/04/04 06:34:31;;;;;;;;;;;;;;;23.04;40.09;100459.50;4131510;28;20017;-63
2024/04/04 06:36:32;;;;;;;;;;;;;;;23.04;40.12;100470.22;4131270;28;20393;-62
2024/04/04 06:38:32;;;;;;;;;;;;;;;23.05;40.18;100469.22;4131129;28;19925;-63
2024/04/04 06:40:37;;;;;;;;;;;;;;;23.06;39.87;100470.06;4131539;28;19926;-62
2024/04/04 06:42:37;;;;;;;;;;;;;;;23.04;40.25;100472.03;4131240;28;20327;-62
2024/04/04 06:44:38;;;;;;;;;;;;;;;23.06;40.21;100467.38;4131231;28;19926;-62
2024/04/04 06:46:38;;;;;;;;;;;;;;;23.06;39.87;100464.69;4131277;28;19925;-61
2024/04/04 06:48:41;;;;;;;;;;;;;;;23.05;39.96;100473.72;4130888;28;19987;-62
2024/04/04 06:50:41;;;;;;;;;;;;;;;23.06;40.00;100467.38;4131192;28;19925;-62
2024/04/04 06:52:42;;;;;;;;;;;;;;;23.05;39.87;100469.22;4130875;28;20415;-62
2024/04/04 06:54:42;;;;;;;;;;;;;;;23.04;39.92;100467.53;4131048;28;20371;-63
2024/04/04 06:56:43;;;;;;;;;;;;;;;23.05;39.90;100468.38;4142673;28;20253;-62
2024/04/04 06:58:43;;;;;;;;;;;;;;;23.03;39.98;100475.72;4147189;28;20020;-62
2024/04/04 07:00:54;;;;;;;;;;;;;;;23.02;39.95;100474.88;4147026;28;19972;-61
2024/04/04 07:02:54;;;;;;;;;;;;;;;23.01;40.09;100475.00;4147107;28;20028;-62
2024/04/04 07:04:55;;;;;;;;;;;;;;;23.02;39.93;100484.75;4146951;28;19949;-62
2024/04/04 07:06:55;;;;;;;;;;;;;;;23.03;40.10;100479.25;4147063;28;20387;-62
2024/04/04 07:08:56;;;;;;;;;;;;;;;23.02;40.14;100482.06;4146084;28;19925;-65
2024/04/04 07:11:00;;;;;;;;;;;;;;;23.02;39.97;100480.22;4147125;28;19933;-62
2024/04/04 07:13:01;;;;;;;;;;;;;;;23.03;39.90;100487.28;4147263;28;19937;-62
2024/04/04 07:15:02;;;;;;;;;;;;;;;23.02;39.93;100480.22;4147179;28;20425;-62
2024/04/04 07:17:03;;;;;;;;;;;;;;;23.03;40.09;100484.63;4146959;28;19933;-62
2024/04/04 07:19:04;;;;;;;;;;;;;;;23.01;39.83;100489.25;4146709;28;19987;-62
2024/04/04 07:21:06;;;;;;;;;;;;;;;23.01;39.86;100485.75;4146865;28;19960;-62
2024/04/04 07:23:07;;;;;;;;;;;;;;;22.98;40.06;100490.41;4146419;28;20107;-62
2024/04/04 07:25:07;;;;;;;;;;;;;;;23.01;40.10;100481.22;4146847;28;19930;-61
2024/04/04 07:27:08;;;;;;;;;;;;;;;22.98;40.13;100501.13;4146551;28;19925;-62
2024/04/04 07:29:09;;;;;;;;;;;;;;;22.98;39.88;100501.13;4146453;28;19925;-61
2024/04/04 07:31:09;;;;;;;;;;;;;;;22.99;40.33;100515.41;4146558;28;20065;-64
2024/04/04 07:33:10;;;;;;;;;;;;;;;22.98;40.15;100522.56;4145416;28;19933;-63
2024/04/04 07:35:11;;;;;;;;;;;;;;;22.97;40.26;100522.72;4139563;28;20553;-63
2024/04/04 07:37:11;;;;;;;;;;;;;;;22.97;40.25;100522.72;4129850;28;19933;-62
2024/04/04 07:39:13;;;;;;;;;;;;;;;22.98;40.34;100522.56;4136449;28;19976;-63
2024/04/04 07:41:16;;;;;;;;;;;;;;;22.98;40.39;100529.78;4146444;28;19925;-64
2024/04/04 07:43:18;;;;;;;;;;;;;;;23.00;40.59;100537.69;4146521;28;19925;-63
2024/04/04 07:45:18;;;;;;;;;;;;;;;22.98;40.57;100544.03;4130328;28;19933;-63
2024/04/04 07:47:19;;;;;;;;;;;;;;;22.96;40.42;100551.38;4146404;28;20381;-62
2024/04/04 07:49:20;;;;;;;;;;;;;;;22.97;40.30;100557.59;4146209;28;20321;-62
2024/04/04 07:51:21;;;;;;;;;;;;;;;22.96;40.39;100555.91;4145499;28;20032;-64
2024/04/04 07:53:22;;;;;;;;;;;;;;;22.94;40.58;100564.09;4129886;28;19936;-62
2024/04/04 07:55:22;;;;;;;;;;;;;;;22.94;40.77;100553.34;4130440;28;20490;-64
2024/04/04 07:57:23;;;;;;;;;;;;;;;22.95;40.65;100543.47;4144718;28;19926;-64
2024/04/04 07:59:24;;;;;;;;;;;;;;;22.93;40.28;100550.78;4144346;28;19972;-67
2024/04/04 08:01:24;;;;;;;;;;;;;;;22.93;40.44;100545.44;4143648;28;20423;-66
2024/04/04 08:03:27;;;;;;;;;;;;;;;22.93;40.37;100566.88;4139990;28;19972;-66
2024/04/04 08:05:29;;;;;;;;;;;;;;;22.93;39.96;100545.44;4145655;28;19925;-65
2024/04/04 08:07:35;;;;;;;;;;;;;;;22.93;39.96;100548.97;4141953;28;20306;-64
2024/04/04 08:09:36;;;;;;;;;;;;;;;22.91;40.15;100537.53;4145436;28;20296;-65
2024/04/04 08:11:37;;;;;;;;;;;;;;;22.90;39.90;100524.28;4145808;28;19929;-69
2024/04/04 08:13:38;;;;;;;;;;;;;;;22.89;39.97;100510.03;4145634;28;19929;-65
2024/04/04 08:15:39;;;;;;;;;;;;;;;22.89;40.01;100527.94;4145556;28;20320;-67
2024/04/04 08:17:42;;;;;;;;;;;;;;;22.87;39.52;100528.09;4145815;28;19930;-62
2024/04/04 08:19:42;;;;;;;;;;;;;;;22.86;39.88;100539.78;4133675;28;19932;-63
2024/04/04 08:21:43;;;;;;;;;;;;;;;22.85;39.85;100543.47;4130664;28;19925;-64
2024/04/04 08:23:44;;;;;;;;;;;;;;;22.86;39.59;100555.03;4141086;28;19925;-65
2024/04/04 08:25:54;;;;;;;;;;;;;;;22.86;39.61;100557.72;4130531;28;20052;-65
2024/04/04 08:27:55;;;;;;;;;;;;;;;22.86;39.57;100547.84;4146767;28;19932;-66
2024/04/04 08:29:56;;;;;;;;;;;;;;;22.85;38.99;100540.78;4147485;28;19925;-66
2024/04/04 08:31:56;;;;;;;;;;;;;;;22.84;39.41;100554.31;4149453;28;20386;-66
2024/04/04 08:33:57;;;;;;;;;;;;;;;22.83;39.29;100541.91;4148188;28;20388;-66
2024/04/04 08:35:58;;;;;;;;;;;;;;;22.82;39.22;100530.34;4147706;28;19932;-65
2024/04/04 08:37:59;;;;;;;;;;;;;;;22.83;39.14;100544.59;4132699;28;19925;-65
2024/04/04 08:39:59;;;;;;;;;;;;;;;22.83;39.39;100537.38;4132994;28;19926;-65
2024/04/04 08:42:00;;;;;;;;;;;;;;;22.81;39.44;100534.84;4132887;28;20015;-65
2024/04/04 08:44:03;;;;;;;;;;;;;;;22.81;39.05;100540.19;4133017;28;19933;-65
2024/04/04 08:46:07;;;;;;;;;;;;;;;22.82;39.03;100559.84;4132513;28;20327;-64
2024/04/04 08:48:07;;;;;;;;;;;;;;;22.83;39.01;100571.41;4132454;28;19926;-65
2024/04/04 08:50:08;;;;;;;;;;;;;;;22.82;39.19;100554.47;4132725;28;19926;-65
2024/04/04 08:52:09;;;;;;;;;;;;;;;22.82;39.24;100557.16;4132535;28;20479;-65
2024/04/04 08:54:09;;;;;;;;;;;;;;;22.84;39.17;100578.47;4132985;28;19929;-65
2024/04/04 08:56:10;;;;;;;;;;;;;;;22.86;39.23;100584.53;4139042;28;19926;-66
2024/04/04 08:58:12;;;;;;;;;;;;;;;22.85;39.43;100564.06;4133917;28;19985;-66
2024/04/04 09:00:19;;;;;;;;;;;;;;;22.84;39.12;100570.41;4132935;28;19932;-66
2024/04/04 09:02:20;;;;;;;;;;;;;;;22.86;40.58;100568.47;4140229;28;19933;-66
2024/04/04 09:04:24;;;;;;;;;;;;;;;22.87;40.27;100564.75;4155379;28;20426;-64
2024/04/04 09:06:25;;;;;;;;;;;;;;;22.87;40.28;100562.94;4139527;28;20066;-65
2024/04/04 09:08:28;;;;;;;;;;;;;;;22.89;40.51;100554.75;4172445;28;20378;-66
2024/04/04 09:10:28;;;;;;;;;;;;;;;22.89;40.28;100569.03;4155829;28;20434;-66
2024/04/04 09:12:30;;;;;;;;;;;;;;;22.87;39.79;100560.25;4153948;28;19964;-64
2024/04/04 09:14:30;;;;;;;;;;;;;;;22.86;40.58;100558.56;4151661;28;19925;-70
2024/04/04 09:16:32;;;;;;;;;;;;;;;22.86;40.04;100563.94;4151881;28;19929;-70
2024/04/04 09:18:33;;;;;;;;;;;;;;;22.89;40.54;100578.88;4152884;28;19932;-66
2024/04/04 09:20:33;;;;;;;;;;;;;;;22.91;40.56;100575.06;4152810;28;19932;-67
2024/04/04 09:22:37;;;;;;;;;;;;;;;22.92;40.00;100589.34;4155252;28;19926;-69
2024/04/04 09:24:39;;;;;;;;;;;;;;;22.93;40.09;100577.59;4155393;28;19925;-67
2024/04/04 09:26:40;;;;;;;;;;;;;;;22.91;40.31;100585.81;4150462;28;19933;-66
2024/04/04 09:28:41;;;;;;;;;;;;;;;22.93;40.03;100585.66;4146341;28;19929;-67
2024/04/04 09:30:43;;;;;;;;;;;;;;;22.89;40.30;100573.53;4147617;28;19926;-71
2024/04/04 09:32:44;;;;;;;;;;;;;;;22.89;39.98;100573.53;4147386;28;19926;-72
2024/04/04 09:34:45;;;;;;;;;;;;;;;22.90;40.04;100575.22;4151481;28;19925;-67
2024/04/04 09:36:46;;;;;;;;;;;;;;;22.94;39.99;100582.00;4149044;28;20448;-65
2024/04/04 09:38:47;;;;;;;;;;;;;;;22.94;40.08;100574.81;4149783;28;20076;-65
2024/04/04 09:40:48;;;;;;;;;;;;;;;22.93;40.08;100572.25;4145228;28;20083;-66
2024/04/04 09:42:50;;;;;;;;;;;;;;;23.02;39.90;100568.75;4147372;28;20372;-67
2024/04/04 09:44:50;;;;;;;;;;;;;;;23.06;39.90;100575.53;4143524;28;19925;-67
2024/04/04 09:46:52;;;;;;;;;;;;;;;23.10;40.29;100576.94;4141823;28;19956;-65
2024/04/04 09:48:53;;;;;;;;;;;;;;;23.16;40.03;100591.66;4147351;28;20448;-63
2024/04/04 09:50:55;;;;;;;;;;;;;;;23.12;40.55;100582.16;4147002;28;19952;-66
2024/04/04 09:52:56;;;;;;;;;;;;;;;23.12;40.40;100592.88;4140481;28;20476;-64
2024/04/04 09:54:57;;;;;;;;;;;;;;;23.09;40.13;100590.50;4144577;28;19926;-65
2024/04/04 09:56:58;;;;;;;;;;;;;;;23.01;40.40;100598.41;4145919;28;20018;-65
2024/04/04 09:58:59;;;;;;;;;;;;;;;23.04;40.32;100592.72;4163222;28;19929;-65
2024/04/04 10:01:19;;;;;;;;;;;;;;;23.03;40.60;100596.44;4146875;28;19929;-65
2024/04/04 10:03:22;;;;;;;;;;;;;;;23.05;40.89;100607.84;4142749;28;19968;-65
2024/04/04 10:05:32;;;;;;;;;;;;;;;23.15;41.02;100606.03;4146530;28;20330;-64
2024/04/04 10:07:32;;;;;;;;;;;;;;;23.19;41.21;100590.53;4140369;28;20361;-65
2024/04/04 10:09:40;;;;;;;;;;;;;;;23.21;41.42;100588.53;4146314;28;19975;-65
2024/04/04 10:11:40;;;;;;;;;;;;;;;23.24;41.09;100589.13;4132489;28;19930;-64
2024/04/04 10:13:48;;;;;;;;;;;;;;;23.22;41.25;100600.97;4146259;28;19936;-64
2024/04/04 10:15:48;;;;;;;;;;;;;;;23.29;41.39;100599.44;4146060;28;19964;-66
2024/04/04 10:17:51;;;;;;;;;;;;;;;23.16;42.32;100599.69;4146176;28;19926;-63
2024/04/04 10:19:52;;;;;;;;;;;;;;;23.16;41.75;100606.88;4146068;28;20325;-65
2024/04/04 10:21:52;;;;;;;;;;;;;;;23.06;42.01;100593.44;4146450;28;19956;-65